world map with PKU marked

PKU - Airport

This information may not be accurate or current and is not valid for navigation or flight planning. No warranty of fitness for any purpose is made or implied.

flag of Riauflag of Indonesia

Donate via PayPal

Additional information is available on the NEW Great Circle Mapper

Location
City:  Pekanbaru, Riau, Indonesia
Name:Sultan Syarif Kasim II International (Simpang Tiga Airport)
ICAO / IATA:WIBB / PKU

Details
Type:Airport (Aerodrome, Airfield)
Use:Public/Civil, Military
Latitude:0°27'39"N (0.460786)
Longitude:101°26'40"E (101.444539)
Datum:WGS 1984
Elevation:102 ft (31 m)
Runways:1
Longest:7360 × 98 ft (2243 × 30 m)

Time
Timezone:UTC+7 (DST+9)
Local Time:

Weather
METAR:WIBB  041400Z 00000KT 8000 FEW017 26/24 Q1012
TAF:WIBB  (expired)

Related Locations
Nearby:
Farthest:LTX: 12446 mi / 20031 km
Latacunga [Cotopaxi Intl], X, EC

Find:

   beyond  
but within

Other Information
Maps:
Sources:

  


 


Great Circle Mapper   Great Circle Mapper
Great Circle Mapper FAQ   Great Circle Mapper FAQ
  Karl's Home Page
KLSē   KLSē Home
   GC on Facebook
Airlines of the World   Airlines of the World
Donate via PayPal


Copyright © 2004-2019, Karl L. Swartz. All rights reserved.
All trademarks mentioned herein belong to their respective owners.

Please see credits for attribution and copyright information.

Karl Swartz <karl@kls2.com>
  Powered by FreeBSD
Valid HTML 4.01!
Labeled with ICRA
hCard Microformat
Geo Microformat